createdAt,value
2022-11-06T00:01:24.972Z,101105.97
2022-11-06T00:03:53.283Z,101105.97
2022-11-06T00:06:39.106Z,101111.28
2022-11-06T00:09:09.232Z,101118.31
2022-11-06T00:11:36.309Z,101109.47
2022-11-06T00:14:03.826Z,101112.16
2022-11-06T00:16:30.824Z,101113.03
2022-11-06T00:19:01.368Z,101101.56
2022-11-06T00:21:30.620Z,101097.16
2022-11-06T00:23:59.963Z,101098.06
2022-11-06T00:26:29.668Z,101095.44
2022-11-06T00:28:57.128Z,101093.69
2022-11-06T00:31:29.921Z,101089.28
2022-11-06T00:33:59.169Z,101090.19
2022-11-06T00:36:27.740Z,101090.22
2022-11-06T00:38:55.416Z,101085.81
2022-11-06T00:41:23.476Z,101083.16
2022-11-06T00:43:56.693Z,101086.72
2022-11-06T00:46:23.599Z,101089.34
2022-11-06T00:48:50.767Z,101092.03
2022-11-06T00:51:20.882Z,101094.69
2022-11-06T00:53:48.282Z,101095.56
2022-11-06T00:56:19.745Z,101088.53
2022-11-06T00:58:47.652Z,101092.06
2022-11-06T01:01:18.490Z,101092.06
2022-11-06T01:03:48.157Z,101083.22
2022-11-06T01:06:20.884Z,101086.75
2022-11-06T01:08:50.055Z,101090.31
2022-11-06T01:11:24.025Z,101090.28
2022-11-06T01:13:55.494Z,101090.28
2022-11-06T01:16:23.879Z,101090.28
2022-11-06T01:18:51.941Z,101095.63
2022-11-06T01:21:29.848Z,101096.50
2022-11-06T01:24:07.981Z,101092.97
2022-11-06T01:26:39.344Z,101091.22
2022-11-06T01:29:16.146Z,101087.69
2022-11-06T01:31:43.228Z,101092.09
2022-11-06T01:34:12.057Z,101080.63
2022-11-06T01:36:39.684Z,101076.19
2022-11-06T01:39:09.294Z,101066.44
2022-11-06T01:41:46.026Z,101069.13
2022-11-06T01:44:31.651Z,101070.00
2022-11-06T01:46:59.648Z,101064.69
2022-11-06T01:49:28.797Z,101067.34
2022-11-06T01:52:02.075Z,101066.47
2022-11-06T01:54:31.085Z,101065.59
2022-11-06T01:57:00.224Z,101069.13
2022-11-06T01:59:32.266Z,101066.47
2022-11-06T02:01:59.202Z,101062.06
2022-11-06T02:04:33.007Z,101064.69
2022-11-06T02:07:01.033Z,101056.75
2022-11-06T02:09:30.391Z,101060.28
2022-11-06T02:12:16.647Z,101063.84
2022-11-06T02:14:54.568Z,101067.38
2022-11-06T02:17:46.491Z,101056.75
2022-11-06T02:20:29.522Z,101063.84
2022-11-06T02:23:52.905Z,101060.28
2022-11-06T02:27:00.434Z,101065.63
2022-11-06T02:29:46.478Z,101055.00
2022-11-06T02:32:23.231Z,101054.09
2022-11-06T02:34:53.421Z,101056.75
2022-11-06T02:37:30.114Z,101048.81
2022-11-06T02:40:00.710Z,101050.59
2022-11-06T02:42:29.645Z,101039.06
2022-11-06T02:44:58.089Z,101039.09
2022-11-06T02:47:28.874Z,101035.56
2022-11-06T02:50:07.607Z,101032.91
2022-11-06T02:52:43.057Z,101037.34
2022-11-06T02:55:24.489Z,101033.78
2022-11-06T02:57:58.623Z,101025.81
2022-11-06T03:00:27.836Z,101029.38
2022-11-06T03:03:01.843Z,101026.72
2022-11-06T03:06:06.039Z,101032.91
2022-11-06T03:08:52.466Z,101028.47
2022-11-06T03:11:24.046Z,101031.13
2022-11-06T03:14:13.665Z,101028.47
2022-11-06T03:16:59.611Z,101032.03
2022-11-06T03:19:56.083Z,101032.91
2022-11-06T03:22:28.696Z,101028.50
2022-11-06T03:25:05.524Z,101024.94
2022-11-06T03:28:14.341Z,101019.63
2022-11-06T03:30:49.929Z,101016.06
2022-11-06T03:33:35.027Z,101007.22
2022-11-06T03:36:15.728Z,101008.09
2022-11-06T03:38:56.178Z,101003.66
2022-11-06T03:41:31.410Z,101010.72
2022-11-06T03:44:01.209Z,101009.81
2022-11-06T03:46:29.784Z,101008.91
2022-11-06T03:49:02.353Z,100998.28
2022-11-06T03:51:40.361Z,100998.28
2022-11-06T03:54:39.386Z,101008.00
2022-11-06T03:57:14.967Z,101015.03
2022-11-06T03:59:51.486Z,101014.13
2022-11-06T04:02:22.747Z,101012.34
2022-11-06T04:04:56.502Z,100999.97
2022-11-06T04:07:30.362Z,101004.38
2022-11-06T04:10:20.779Z,101005.22
2022-11-06T04:13:08.229Z,100997.28
2022-11-06T04:15:42.103Z,101002.56
2022-11-06T04:18:14.290Z,101001.66
2022-11-06T04:21:13.030Z,100999.88
2022-11-06T04:24:36.566Z,101002.47
2022-11-06T04:27:38.639Z,101001.59
2022-11-06T04:30:14.843Z,100999.81
2022-11-06T04:33:05.732Z,100989.22
2022-11-06T04:35:47.331Z,100988.38
2022-11-06T04:38:46.656Z,100994.59
2022-11-06T04:42:01.426Z,100993.72
2022-11-06T04:44:47.991Z,100999.03
2022-11-06T04:47:21.610Z,100991.13
2022-11-06T04:49:50.961Z,100997.31
2022-11-06T04:52:22.653Z,100997.34
2022-11-06T04:54:50.271Z,100998.25
2022-11-06T04:57:17.098Z,101001.78
2022-11-06T04:59:43.884Z,101000.94
2022-11-06T05:02:11.657Z,100992.09
2022-11-06T05:04:38.517Z,100985.94
2022-11-06T05:07:05.336Z,100980.63
2022-11-06T05:09:32.238Z,100982.41
2022-11-06T05:11:59.019Z,100985.94
2022-11-06T05:14:25.801Z,100985.06
2022-11-06T05:16:52.583Z,100986.84
2022-11-06T05:19:19.382Z,100990.38
2022-11-06T05:22:04.555Z,100991.25
2022-11-06T05:24:31.317Z,100987.72
2022-11-06T05:26:59.593Z,100993.03
2022-11-06T05:29:27.328Z,100994.81
2022-11-06T05:31:54.188Z,100993.94
2022-11-06T05:34:21.479Z,100986.88
2022-11-06T05:36:48.297Z,100988.63
2022-11-06T05:39:15.087Z,100980.69
2022-11-06T05:41:41.907Z,100981.59
2022-11-06T05:44:08.874Z,100978.06
2022-11-06T05:46:48.799Z,100974.50
2022-11-06T05:49:18.167Z,100981.56
2022-11-06T05:51:45.090Z,100980.66
2022-11-06T05:54:11.895Z,100975.38
2022-11-06T05:56:38.670Z,100971.00
2022-11-06T05:59:05.588Z,100972.75
2022-11-06T06:01:32.470Z,100964.78
2022-11-06T06:03:59.543Z,100958.59
2022-11-06T06:06:26.598Z,100958.59
2022-11-06T06:08:53.412Z,100954.19
2022-11-06T06:11:20.293Z,100951.50
2022-11-06T06:13:48.338Z,100958.59
2022-11-06T06:16:15.892Z,100961.22
2022-11-06T06:18:42.689Z,100961.22
2022-11-06T06:21:09.450Z,100963.00
2022-11-06T06:23:36.219Z,100965.63
2022-11-06T06:26:03.027Z,100963.84
2022-11-06T06:28:29.799Z,100962.97
2022-11-06T06:31:01.304Z,100959.44
2022-11-06T06:33:28.770Z,100961.19
2022-11-06T06:35:55.539Z,100962.94
2022-11-06T06:38:22.601Z,100973.53
2022-11-06T06:40:49.441Z,100957.66
2022-11-06T06:43:16.207Z,100954.09
2022-11-06T06:45:43.103Z,100963.81
2022-11-06T06:48:10.043Z,100960.28
2022-11-06T06:50:36.959Z,100962.94
2022-11-06T06:53:03.881Z,100960.28
2022-11-06T06:55:30.702Z,100957.63
2022-11-06T06:58:01.715Z,100951.44
2022-11-06T07:00:29.356Z,100945.25
2022-11-06T07:02:56.331Z,100937.31
2022-11-06T07:05:23.443Z,100945.25
2022-11-06T07:07:50.380Z,100939.97
2022-11-06T07:10:17.344Z,100939.06
2022-11-06T07:12:44.226Z,100946.13
2022-11-06T07:15:11.482Z,100947.91
2022-11-06T07:17:38.254Z,100952.31
2022-11-06T07:20:06.027Z,100945.28
2022-11-06T07:22:37.474Z,100947.06
2022-11-06T07:25:05.961Z,100962.97
2022-11-06T07:27:33.465Z,100954.13
2022-11-06T07:30:00.586Z,100971.81
2022-11-06T07:32:27.909Z,100961.25
2022-11-06T07:34:54.736Z,100959.47
2022-11-06T07:37:21.869Z,100961.28
2022-11-06T07:39:48.696Z,100952.44
2022-11-06T07:42:15.510Z,100955.97
2022-11-06T07:44:42.286Z,100954.22
2022-11-06T07:47:09.076Z,100944.50
2022-11-06T07:49:35.861Z,100948.94
2022-11-06T07:52:03.053Z,100953.34
2022-11-06T07:54:29.870Z,100938.31
2022-11-06T07:56:56.935Z,100946.25
2022-11-06T07:59:23.720Z,100940.06
2022-11-06T08:01:50.613Z,100941.81
2022-11-06T08:04:17.504Z,100935.56
2022-11-06T08:06:44.264Z,100932.03
2022-11-06T08:09:11.071Z,100927.59
2022-11-06T08:11:37.840Z,100936.44
2022-11-06T08:14:04.673Z,100939.06
2022-11-06T08:16:31.560Z,100943.50
2022-11-06T08:18:58.333Z,100938.19
2022-11-06T08:21:25.223Z,100933.78
2022-11-06T08:23:52.058Z,100933.75
2022-11-06T08:26:19.340Z,100936.41
2022-11-06T08:28:46.192Z,100935.47
2022-11-06T08:31:14.920Z,100923.97
2022-11-06T08:33:41.774Z,100939.88
2022-11-06T08:36:09.986Z,100940.72
2022-11-06T08:38:36.891Z,100935.41
2022-11-06T08:41:08.712Z,100929.19
2022-11-06T08:43:35.972Z,100929.19
2022-11-06T08:46:04.592Z,100937.13
2022-11-06T08:48:33.047Z,100931.78
2022-11-06T08:50:59.962Z,100929.09
2022-11-06T08:53:26.799Z,100936.16
2022-11-06T08:55:53.621Z,100929.97
2022-11-06T08:58:20.463Z,100924.63
2022-11-06T09:00:47.333Z,100935.19
2022-11-06T09:03:17.994Z,100927.19
2022-11-06T09:05:45.809Z,100921.00
2022-11-06T09:08:14.276Z,100909.50
2022-11-06T09:10:42.756Z,100906.81
2022-11-06T09:13:11.060Z,100913.00
2022-11-06T09:15:38.355Z,100901.53
2022-11-06T09:18:05.549Z,100900.63
2022-11-06T09:20:32.425Z,100905.06
2022-11-06T09:23:05.281Z,100900.63
2022-11-06T09:25:32.886Z,100905.06
2022-11-06T09:28:00.939Z,100913.00
2022-11-06T09:30:30.885Z,100907.63
2022-11-06T09:33:01.841Z,100910.22
2022-11-06T09:35:31.876Z,100912.84
2022-11-06T09:38:08.045Z,100912.78
2022-11-06T09:40:52.583Z,100905.66
2022-11-06T09:44:04.736Z,100897.66
2022-11-06T09:46:44.430Z,100891.41
2022-11-06T09:49:36.446Z,100881.66
2022-11-06T09:52:18.921Z,100879.88
2022-11-06T09:54:59.960Z,100877.19
2022-11-06T09:57:47.341Z,100876.22
2022-11-06T10:00:17.079Z,100876.13
2022-11-06T10:02:52.041Z,100874.22
2022-11-06T10:05:21.634Z,100873.22
2022-11-06T10:07:54.180Z,100874.94
2022-11-06T10:10:29.290Z,100868.63
2022-11-06T10:13:07.605Z,100872.13
2022-11-06T10:15:44.455Z,100873.81
2022-11-06T10:18:53.982Z,100872.00
2022-11-06T10:21:25.160Z,100869.22
2022-11-06T10:23:59.215Z,100866.53
2022-11-06T10:26:51.792Z,100877.16
2022-11-06T10:29:50.488Z,100862.03
2022-11-06T10:32:32.351Z,100849.50
2022-11-06T10:35:08.577Z,100853.88
2022-11-06T10:37:54.899Z,100849.34
2022-11-06T10:40:28.777Z,100851.06
2022-11-06T10:43:07.080Z,100844.81
2022-11-06T10:45:34.866Z,100849.19
2022-11-06T10:48:19.256Z,100846.44
2022-11-06T10:51:05.284Z,100842.00
2022-11-06T10:54:21.333Z,100837.50
2022-11-06T10:57:23.580Z,100830.38
2022-11-06T10:59:50.931Z,100817.94
2022-11-06T11:02:29.643Z,100810.78
2022-11-06T11:04:58.270Z,100809.94
2022-11-06T11:07:31.773Z,100808.16
2022-11-06T11:09:58.737Z,100794.81
2022-11-06T11:12:32.808Z,100789.47
2022-11-06T11:15:18.324Z,100792.19
2022-11-06T11:18:22.366Z,100790.44
2022-11-06T11:21:01.522Z,100785.13
2022-11-06T11:23:28.418Z,100766.47
2022-11-06T11:25:58.425Z,100779.81
2022-11-06T11:28:35.152Z,100771.81
2022-11-06T11:31:11.742Z,100769.13
2022-11-06T11:33:41.861Z,100752.25
2022-11-06T11:36:10.205Z,100744.25
2022-11-06T11:38:40.033Z,100741.59
2022-11-06T11:41:19.102Z,100740.63
2022-11-06T11:44:04.136Z,100739.75
2022-11-06T11:46:32.685Z,100740.63
2022-11-06T11:49:00.198Z,100752.09
2022-11-06T11:51:37.028Z,100734.31
2022-11-06T11:54:26.708Z,100739.59
2022-11-06T11:57:07.579Z,100737.78
2022-11-06T12:00:00.192Z,100738.59
2022-11-06T12:02:51.277Z,100730.53
2022-11-06T12:05:37.501Z,100725.19
2022-11-06T12:08:06.521Z,100728.72
2022-11-06T12:10:39.068Z,100715.34
2022-11-06T12:13:15.137Z,100713.56
2022-11-06T12:16:00.329Z,100716.16
2022-11-06T12:18:42.517Z,100706.38
2022-11-06T12:21:20.226Z,100708.97
2022-11-06T12:24:12.866Z,100704.44
2022-11-06T12:26:58.129Z,100698.25
2022-11-06T12:29:41.189Z,100693.84
2022-11-06T12:32:38.574Z,100702.81
2022-11-06T12:35:38.204Z,100682.50
2022-11-06T12:38:33.123Z,100680.81
2022-11-06T12:41:25.420Z,100683.56
2022-11-06T12:43:53.103Z,100677.44
2022-11-06T12:46:24.685Z,100667.69
2022-11-06T12:50:01.358Z,100670.34
2022-11-06T12:53:10.753Z,100660.56
2022-11-06T12:56:10.854Z,100655.09
2022-11-06T12:59:09.928Z,100645.19
2022-11-06T13:01:53.372Z,100639.69
2022-11-06T13:04:34.416Z,100633.28
2022-11-06T13:07:34.577Z,100632.31
2022-11-06T13:10:26.683Z,100631.34
2022-11-06T13:13:19.354Z,100626.88
2022-11-06T13:16:17.320Z,100621.53
2022-11-06T13:18:53.396Z,100620.59
2022-11-06T13:21:52.297Z,100611.69
2022-11-06T13:24:41.364Z,100616.88
2022-11-06T13:27:32.759Z,100613.22
2022-11-06T13:30:13.849Z,100613.19
2022-11-06T13:32:48.444Z,100604.19
2022-11-06T13:35:21.484Z,100599.66
2022-11-06T13:37:51.318Z,100588.97
2022-11-06T13:41:03.944Z,100584.53
2022-11-06T13:43:46.663Z,100580.97
2022-11-06T13:46:36.447Z,100580.97
2022-11-06T13:49:30.802Z,100584.59
2022-11-06T13:52:05.578Z,100576.69
2022-11-06T13:55:10.833Z,100573.19
2022-11-06T13:58:11.429Z,100560.00
2022-11-06T14:01:02.992Z,100553.94
2022-11-06T14:04:02.986Z,100565.69
2022-11-06T14:06:32.922Z,100555.16
2022-11-06T14:09:15.651Z,100549.88
2022-11-06T14:11:44.956Z,100548.25
2022-11-06T14:14:26.042Z,100540.38
2022-11-06T14:17:17.130Z,100529.84
2022-11-06T14:19:50.893Z,100521.94
2022-11-06T14:22:28.687Z,100513.19
2022-11-06T14:25:01.271Z,100514.16
2022-11-06T14:27:29.117Z,100510.66
2022-11-06T14:30:18.360Z,100506.22
2022-11-06T14:32:48.273Z,100516.94
2022-11-06T14:35:33.096Z,100516.03
2022-11-06T14:38:31.523Z,100519.59
2022-11-06T14:40:58.927Z,100513.38
2022-11-06T14:43:33.873Z,100515.09
2022-11-06T14:46:19.664Z,100508.88
2022-11-06T14:48:52.222Z,100506.25
2022-11-06T14:51:27.148Z,100502.72
2022-11-06T14:54:01.528Z,100506.28
2022-11-06T14:56:32.982Z,100510.84
2022-11-06T14:59:10.597Z,100510.81
2022-11-06T15:01:37.845Z,100493.97
2022-11-06T15:04:18.853Z,100502.81
2022-11-06T15:06:50.542Z,100499.25
2022-11-06T15:09:23.374Z,100501.94
2022-11-06T15:11:55.967Z,100505.50
2022-11-06T15:14:22.760Z,100506.38
2022-11-06T15:16:55.297Z,100501.13
2022-11-06T15:19:27.494Z,100506.47
2022-11-06T15:22:15.920Z,100511.81
2022-11-06T15:24:58.378Z,100512.78
2022-11-06T15:27:31.117Z,100515.59
2022-11-06T15:30:02.520Z,100513.00
2022-11-06T15:32:38.025Z,100498.88
2022-11-06T15:35:19.130Z,100501.59
2022-11-06T15:37:57.129Z,100501.66
2022-11-06T15:40:37.532Z,100492.94
2022-11-06T15:43:34.397Z,100489.44
2022-11-06T15:46:15.049Z,100490.41
2022-11-06T15:48:42.285Z,100497.59
2022-11-06T15:51:26.894Z,100496.72
2022-11-06T15:53:57.069Z,100495.97
2022-11-06T15:56:30.723Z,100503.13
2022-11-06T15:59:14.569Z,100497.00
2022-11-06T16:01:42.352Z,100491.75
2022-11-06T16:04:18.722Z,100491.81
2022-11-06T16:06:47.563Z,100483.03
2022-11-06T16:09:22.773Z,100477.78
2022-11-06T16:11:52.185Z,100472.53
2022-11-06T16:14:20.147Z,100452.19
2022-11-06T16:16:56.053Z,100460.19
2022-11-06T16:19:36.195Z,100454.00
2022-11-06T16:22:14.423Z,100462.03
2022-11-06T16:24:51.245Z,100460.28
2022-11-06T16:27:18.519Z,100453.25
2022-11-06T16:29:56.382Z,100432.03
2022-11-06T16:32:27.501Z,100432.94
2022-11-06T16:34:55.306Z,100421.44
2022-11-06T16:37:29.482Z,100428.53
2022-11-06T16:39:59.472Z,100425.06
2022-11-06T16:42:29.455Z,100429.50
2022-11-06T16:45:08.098Z,100440.16
2022-11-06T16:47:35.888Z,100432.22
2022-11-06T16:50:05.860Z,100431.38
2022-11-06T16:52:34.749Z,100425.22
2022-11-06T16:55:23.370Z,100420.78
2022-11-06T16:57:58.019Z,100435.03
2022-11-06T17:00:31.166Z,100421.75
2022-11-06T17:03:19.205Z,100415.59
2022-11-06T17:05:58.707Z,100420.94
2022-11-06T17:08:38.258Z,100421.00
2022-11-06T17:11:21.698Z,100423.66
2022-11-06T17:13:50.557Z,100419.22
2022-11-06T17:16:45.441Z,100409.50
2022-11-06T17:19:12.392Z,100415.69
2022-11-06T17:21:39.353Z,100401.44
2022-11-06T17:24:24.382Z,100407.63
2022-11-06T17:26:54.173Z,100400.50
2022-11-06T17:29:22.457Z,100393.38
2022-11-06T17:31:52.556Z,100401.34
2022-11-06T17:34:19.514Z,100386.25
2022-11-06T17:36:48.680Z,100387.09
2022-11-06T17:39:16.134Z,100405.66
2022-11-06T17:41:55.274Z,100397.66
2022-11-06T17:44:28.531Z,100397.66
2022-11-06T17:46:59.301Z,100406.53
2022-11-06T17:49:29.516Z,100396.72
2022-11-06T17:52:19.105Z,100399.38
2022-11-06T17:54:46.183Z,100391.38
2022-11-06T17:57:17.476Z,100382.50
2022-11-06T18:00:08.602Z,100384.22
2022-11-06T18:03:00.567Z,100383.34
2022-11-06T18:05:33.590Z,100377.13
2022-11-06T18:08:03.241Z,100374.47
2022-11-06T18:10:30.916Z,100373.59
2022-11-06T18:13:13.691Z,100359.41
2022-11-06T18:15:42.066Z,100355.91
2022-11-06T18:18:10.706Z,100350.59
2022-11-06T18:20:53.838Z,100341.75
2022-11-06T18:23:21.156Z,100339.97
2022-11-06T18:25:58.129Z,100347.06
2022-11-06T18:28:26.117Z,100339.97
2022-11-06T18:30:53.530Z,100338.22
2022-11-06T18:33:23.695Z,100339.97
2022-11-06T18:35:52.154Z,100345.28
2022-11-06T18:38:19.207Z,100343.53
2022-11-06T18:40:51.653Z,100343.50
2022-11-06T18:43:18.921Z,100339.06
2022-11-06T18:45:46.210Z,100332.88
2022-11-06T18:48:15.923Z,100326.66
2022-11-06T18:50:46.785Z,100324.00
2022-11-06T18:53:15.116Z,100322.22
2022-11-06T18:55:46.274Z,100316.84
2022-11-06T18:58:13.525Z,100309.81
2022-11-06T19:00:40.653Z,100312.47
2022-11-06T19:03:07.494Z,100312.47
2022-11-06T19:05:34.494Z,100324.88
2022-11-06T19:08:02.732Z,100319.56
2022-11-06T19:10:31.244Z,100316.91
2022-11-06T19:12:59.586Z,100304.50
2022-11-06T19:15:26.595Z,100316.91
2022-11-06T19:17:54.724Z,100315.13
2022-11-06T19:20:22.235Z,100319.56
2022-11-06T19:22:53.456Z,100318.66
2022-11-06T19:25:21.396Z,100320.47
2022-11-06T19:27:48.408Z,100320.47
2022-11-06T19:30:16.203Z,100317.81
2022-11-06T19:32:42.998Z,100320.44
2022-11-06T19:35:09.971Z,100316.00
2022-11-06T19:37:38.289Z,100315.06
2022-11-06T19:40:06.565Z,100310.63
2022-11-06T19:42:33.810Z,100320.34
2022-11-06T19:45:01.400Z,100314.16
2022-11-06T19:47:28.238Z,100310.63
2022-11-06T19:49:55.081Z,100300.81
2022-11-06T19:52:42.973Z,100299.91
2022-11-06T19:55:24.965Z,100294.59
2022-11-06T19:57:54.232Z,100299.09
2022-11-06T20:00:21.131Z,100299.97
2022-11-06T20:02:51.190Z,100296.41
2022-11-06T20:05:18.364Z,100304.41
2022-11-06T20:07:45.322Z,100297.31
2022-11-06T20:10:12.112Z,100297.31
2022-11-06T20:12:38.893Z,100305.31
2022-11-06T20:15:06.300Z,100295.63
2022-11-06T20:17:33.087Z,100307.16
2022-11-06T20:19:59.863Z,100300.97
2022-11-06T20:22:26.827Z,100304.59
2022-11-06T20:24:53.629Z,100295.81
2022-11-06T20:27:20.425Z,100288.78
2022-11-06T20:29:47.198Z,100276.53
2022-11-06T20:32:18.879Z,100256.28
2022-11-06T20:34:46.272Z,100241.28
2022-11-06T20:37:13.175Z,100252.00
2022-11-06T20:39:41.509Z,100251.16
2022-11-06T20:42:08.592Z,100255.63
2022-11-06T20:44:35.437Z,100253.91
2022-11-06T20:47:02.277Z,100262.78
2022-11-06T20:49:29.068Z,100280.50
2022-11-06T20:52:13.256Z,100285.88
2022-11-06T20:54:46.428Z,100311.59
2022-11-06T20:57:15.205Z,100306.31
2022-11-06T20:59:42.383Z,100299.25
2022-11-06T21:02:11.153Z,100291.28
2022-11-06T21:04:38.413Z,100289.56
2022-11-06T21:07:05.552Z,100278.94
2022-11-06T21:09:32.384Z,100268.38
2022-11-06T21:11:59.271Z,100270.16
2022-11-06T21:14:26.182Z,100253.41
2022-11-06T21:16:53.967Z,100261.41
2022-11-06T21:19:20.858Z,100258.75
2022-11-06T21:21:47.708Z,100258.78
2022-11-06T21:24:14.528Z,100269.38
2022-11-06T21:26:41.460Z,100275.59
2022-11-06T21:29:10.786Z,100273.84
2022-11-06T21:31:43.956Z,100274.72
2022-11-06T21:34:15.620Z,100279.16
2022-11-06T21:36:42.429Z,100279.22
2022-11-06T21:39:15.170Z,100287.13
2022-11-06T21:41:42.599Z,100288.91
2022-11-06T21:44:16.095Z,100275.63
2022-11-06T21:46:45.578Z,100273.91
2022-11-06T21:49:13.750Z,100274.78
2022-11-06T21:51:40.819Z,100285.44
2022-11-06T21:54:28.109Z,100279.28
2022-11-06T21:56:54.908Z,100279.28
2022-11-06T21:59:29.189Z,100273.03
2022-11-06T22:01:56.303Z,100276.63
2022-11-06T22:04:23.355Z,100280.16
2022-11-06T22:06:52.216Z,100280.09
2022-11-06T22:09:24.483Z,100268.59
2022-11-06T22:11:52.063Z,100265.03
2022-11-06T22:14:19.115Z,100262.38
2022-11-06T22:16:47.474Z,100253.53
2022-11-06T22:19:16.233Z,100252.63
2022-11-06T22:21:43.507Z,100263.22
2022-11-06T22:24:12.935Z,100259.66
2022-11-06T22:26:40.583Z,100257.84
2022-11-06T22:29:11.617Z,100269.34
2022-11-06T22:31:38.438Z,100252.53
2022-11-06T22:34:05.507Z,100248.13
2022-11-06T22:36:32.397Z,100259.69
2022-11-06T22:39:00.629Z,100250.88
2022-11-06T22:41:27.513Z,100250.88
2022-11-06T22:43:58.825Z,100264.16
2022-11-06T22:46:26.779Z,100252.63
2022-11-06T22:48:54.049Z,100259.69
2022-11-06T22:51:24.630Z,100266.75
2022-11-06T22:53:52.619Z,100266.72
2022-11-06T22:56:22.560Z,100252.50
2022-11-06T22:59:02.030Z,100257.75
2022-11-06T23:01:33.174Z,100260.41
2022-11-06T23:04:06.052Z,100259.47
2022-11-06T23:06:33.284Z,100255.03
2022-11-06T23:09:00.485Z,100247.06
2022-11-06T23:11:30.257Z,100250.66
2022-11-06T23:14:05.954Z,100247.13
2022-11-06T23:16:52.768Z,100252.50
2022-11-06T23:19:21.057Z,100252.50
2022-11-06T23:21:47.943Z,100257.75
2022-11-06T23:24:15.221Z,100263.06
2022-11-06T23:26:45.504Z,100263.00
2022-11-06T23:29:12.507Z,100262.13
2022-11-06T23:31:40.985Z,100272.69
2022-11-06T23:34:07.799Z,100279.75
2022-11-06T23:36:35.440Z,100283.22
2022-11-06T23:39:02.231Z,100282.34
2022-11-06T23:41:45.383Z,100277.91
2022-11-06T23:44:32.256Z,100286.75
2022-11-06T23:46:59.641Z,100295.63
2022-11-06T23:49:26.454Z,100302.69
2022-11-06T23:51:53.349Z,100299.09
2022-11-06T23:54:20.395Z,100295.53
2022-11-06T23:56:47.184Z,100294.66
2022-11-06T23:59:14.013Z,100302.56
